NCAR-RAP Real-Time Weather Data

Output produced by METARs form (23 April 2019  08:24 UTC)
found at http://weather.rap.ucar.edu/surface/
 
KGRI 230753Z AUTO 33003KT 10SM CLR 05/03 A3018 RMK AO2 SLP228 T00500028
KGRI 230653Z AUTO 36005KT 10SM CLR 06/03 A3018 RMK AO2 SLP228 T00610033
KGRI 230553Z AUTO 35006KT 10SM CLR 05/02 A3017 RMK AO2 SLP228 T00500022 10161 20050 401720050 50003
KGRI 230453Z AUTO 33006KT 10SM CLR 07/03 A3017 RMK AO2 SLP227 T00670033
KGRI 230353Z AUTO 00000KT 10SM CLR 08/03 A3018 RMK AO2 SLP228 T00780033
KGRI 230253Z AUTO 02004KT 10SM CLR 08/04 A3016 RMK AO2 SLP222 T00830039 53016
KGRI 230153Z AUTO 02008KT 10SM CLR 11/04 A3013 RMK AO2 SLP209 T01110044
KGRI 230053Z 02012KT 10SM CLR 14/04 A3011 RMK AO2 PK WND 36026/0007 SLP200 T01440039
KGRI 222353Z 36018G25KT 10SM CLR 16/03 A3011 RMK AO2 PK WND 36027/2311 SLP201 T01610033 10172 20106 53009
KGRI 222253Z 02014G23KT 10SM BKN035 16/08 A3010 RMK AO2 SLP195 T01610078
KGRI 222207Z 01014G25KT 10SM OVC032 16/08 A3010 RMK AO2 T01560083
KGRI 222153Z 35017KT 10SM OVC028 15/08 A3010 RMK AO2 PK WND 35026/2139 SLP194 T01500083
KGRI 222137Z 34018G24KT 10SM BKN027 OVC036 15/08 A3009 RMK AO2 T01500078
KGRI 222114Z 35015G25KT 10SM SCT025 OVC035 15/08 A3009 RMK AO2 T01500083
KGRI 222053Z 36019KT 10SM BKN023 OVC029 14/08 A3009 RMK AO2 PK WND 36029/2035 SLP190 T01440083 50003
KGRI 221953Z 35016KT 10SM OVC019 13/08 A3009 RMK AO2 SLP192 T01330078
KGRI 221853Z 34016KT 10SM OVC016 12/07 A3009 RMK AO2 SLP192 T01170072
KGRI 221845Z 35014G22KT 10SM OVC016 12/07 A3009 RMK AO2 T01170072
KGRI 221753Z 34017KT 10SM OVC013 11/07 A3008 RMK AO2 PK WND 34026/1720 SLP189 T01060072 10106 20100 51018
KGRI 221653Z 34017KT 10SM OVC013 11/07 A3007 RMK AO2 SLP185 T01060067
KGRI 221611Z 35015KT 10SM OVC014 11/06 A3006 RMK AO2 T01060061
KGRI 221553Z 35019G26KT 10SM OVC015 11/06 A3004 RMK AO2 PK WND 34026/1537 SLP176 T01060061
KGRI 221453Z 34019G27KT 10SM OVC015 10/06 A3002 RMK AO2 PK WND 35027/1414 SLP167 T01000061 51023
KGRI 221402Z 33013G23KT 10SM BKN014 OVC020 10/07 A3000 RMK AO2 T01000067
KGRI 221353Z 35013G21KT 10SM OVC016 11/07 A3000 RMK AO2 PK WND 34027/1328 SLP157 T01060067